sensor_id;sensor_type;location;lat;lon;timestamp;pressure;altitude;pressure_sealevel;temperature;humidity
56831;BME280;42713;42.676;23.352;2023-03-23T00:02:28;94756.38;;;7.96;82.94
56831;BME280;42713;42.676;23.352;2023-03-23T00:04:55;94746.94;;;7.95;82.76
56831;BME280;42713;42.676;23.352;2023-03-23T00:07:22;94750.81;;;7.92;82.99
56831;BME280;42713;42.676;23.352;2023-03-23T00:09:49;94753.97;;;7.94;82.16
56831;BME280;42713;42.676;23.352;2023-03-23T00:12:25;94751.81;;;7.91;82.22
56831;BME280;42713;42.676;23.352;2023-03-23T00:14:58;94756.81;;;7.93;81.83
56831;BME280;42713;42.676;23.352;2023-03-23T00:17:26;94758.63;;;7.92;81.13
56831;BME280;42713;42.676;23.352;2023-03-23T00:19:51;94756.69;;;7.88;80.79
56831;BME280;42713;42.676;23.352;2023-03-23T00:22:17;94759.50;;;7.86;81.07
56831;BME280;42713;42.676;23.352;2023-03-23T00:24:45;94767.81;;;7.83;81.00
56831;BME280;42713;42.676;23.352;2023-03-23T00:27:10;94759.59;;;7.79;80.62
56831;BME280;42713;42.676;23.352;2023-03-23T00:29:38;94762.44;;;7.78;81.02
56831;BME280;42713;42.676;23.352;2023-03-23T00:32:05;94761.88;;;7.76;80.61
56831;BME280;42713;42.676;23.352;2023-03-23T00:34:31;94770.94;;;7.73;80.52
56831;BME280;42713;42.676;23.352;2023-03-23T00:36:59;94761.97;;;7.69;80.09
56831;BME280;42713;42.676;23.352;2023-03-23T00:39:25;94762.84;;;7.63;80.16
56831;BME280;42713;42.676;23.352;2023-03-23T00:41:52;94775.78;;;7.58;80.10
56831;BME280;42713;42.676;23.352;2023-03-23T00:44:19;94778.59;;;7.56;79.75
56831;BME280;42713;42.676;23.352;2023-03-23T00:46:49;94776.66;;;7.52;80.57
56831;BME280;42713;42.676;23.352;2023-03-23T00:49:17;94783.09;;;7.49;80.10
56831;BME280;42713;42.676;23.352;2023-03-23T00:51:43;94781.72;;;7.46;80.55
56831;BME280;42713;42.676;23.352;2023-03-23T00:54:10;94781.94;;;7.45;80.00
56831;BME280;42713;42.676;23.352;2023-03-23T00:56:36;94780.56;;;7.42;79.93
56831;BME280;42713;42.676;23.352;2023-03-23T00:59:02;94782.81;;;7.39;80.47
56831;BME280;42713;42.676;23.352;2023-03-23T01:01:28;94789.88;;;7.38;80.98
56831;BME280;42713;42.676;23.352;2023-03-23T01:03:55;94792.91;;;7.35;81.23
56831;BME280;42713;42.676;23.352;2023-03-23T01:06:27;94794.13;;;7.32;82.37
56831;BME280;42713;42.676;23.352;2023-03-23T01:08:52;94790.13;;;7.30;82.54
56831;BME280;42713;42.676;23.352;2023-03-23T01:11:19;94784.94;;;7.30;83.40
56831;BME280;42713;42.676;23.352;2023-03-23T01:13:45;94782.13;;;7.31;84.15
56831;BME280;42713;42.676;23.352;2023-03-23T01:16:11;94784.94;;;7.30;84.27
56831;BME280;42713;42.676;23.352;2023-03-23T01:18:37;94782.78;;;7.27;85.21
56831;BME280;42713;42.676;23.352;2023-03-23T01:21:06;94778.00;;;7.24;84.91
56831;BME280;42713;42.676;23.352;2023-03-23T01:23:32;94773.03;;;7.22;85.24
56831;BME280;42713;42.676;23.352;2023-03-23T01:26:05;94774.47;;;7.18;85.53
56831;BME280;42713;42.676;23.352;2023-03-23T01:28:33;94769.31;;;7.11;85.90
56831;BME280;42713;42.676;23.352;2023-03-23T01:31:04;94773.81;;;7.04;86.17
56831;BME280;42713;42.676;23.352;2023-03-23T01:33:30;94769.50;;;6.98;86.31
56831;BME280;42713;42.676;23.352;2023-03-23T01:35:56;94763.13;;;6.94;86.93
56831;BME280;42713;42.676;23.352;2023-03-23T01:38:22;94760.16;;;6.90;86.33
56831;BME280;42713;42.676;23.352;2023-03-23T01:40:47;94758.00;;;6.87;86.86
56831;BME280;42713;42.676;23.352;2023-03-23T01:43:14;94762.63;;;6.85;86.62
56831;BME280;42713;42.676;23.352;2023-03-23T01:45:40;94758.63;;;6.82;87.31
56831;BME280;42713;42.676;23.352;2023-03-23T01:48:14;94757.44;;;6.85;88.01
56831;BME280;42713;42.676;23.352;2023-03-23T01:51:01;94752.78;;;6.87;87.92
56831;BME280;42713;42.676;23.352;2023-03-23T01:53:36;94757.34;;;6.92;87.66
56831;BME280;42713;42.676;23.352;2023-03-23T01:56:03;94752.72;;;6.94;86.94
56831;BME280;42713;42.676;23.352;2023-03-23T01:58:32;94750.47;;;6.97;87.33
56831;BME280;42713;42.676;23.352;2023-03-23T02:01:02;94748.78;;;7.03;87.14
56831;BME280;42713;42.676;23.352;2023-03-23T02:03:29;94749.97;;;7.07;87.29
56831;BME280;42713;42.676;23.352;2023-03-23T02:05:57;94749.88;;;7.14;86.58
56831;BME280;42713;42.676;23.352;2023-03-23T02:08:27;94754.63;;;7.17;87.17
56831;BME280;42713;42.676;23.352;2023-03-23T02:10:53;94753.97;;;7.22;86.68
56831;BME280;42713;42.676;23.352;2023-03-23T02:13:19;94752.53;;;7.26;86.31
56831;BME280;42713;42.676;23.352;2023-03-23T02:21:31;94756.19;;;7.37;86.09
56831;BME280;42713;42.676;23.352;2023-03-23T02:29:30;94751.09;;;7.11;85.29
56831;BME280;42713;42.676;23.352;2023-03-23T02:32:08;94753.00;;;7.04;85.54
56831;BME280;42713;42.676;23.352;2023-03-23T02:34:45;94758.94;;;6.93;85.81
56831;BME280;42713;42.676;23.352;2023-03-23T02:37:28;94755.53;;;6.92;85.90
56831;BME280;42713;42.676;23.352;2023-03-23T02:42:36;94753.38;;;6.89;86.16
56831;BME280;42713;42.676;23.352;2023-03-23T02:45:07;94756.31;;;6.93;85.51
56831;BME280;42713;42.676;23.352;2023-03-23T02:47:35;94769.34;;;6.93;84.27
56831;BME280;42713;42.676;23.352;2023-03-23T02:50:07;94777.16;;;6.93;84.06
56831;BME280;42713;42.676;23.352;2023-03-23T02:52:36;94770.34;;;6.92;83.74
56831;BME280;42713;42.676;23.352;2023-03-23T02:55:04;94775.44;;;6.87;83.70
56831;BME280;42713;42.676;23.352;2023-03-23T02:57:30;94790.47;;;6.84;83.08
56831;BME280;42713;42.676;23.352;2023-03-23T02:59:56;94785.69;;;6.81;83.47
56831;BME280;42713;42.676;23.352;2023-03-23T03:02:29;94784.53;;;6.77;83.32
56831;BME280;42713;42.676;23.352;2023-03-23T03:06:05;94788.28;;;6.63;83.20
56831;BME280;42713;42.676;23.352;2023-03-23T03:08:24;94791.38;;;6.53;83.36
56831;BME280;42713;42.676;23.352;2023-03-23T03:10:59;94798.97;;;6.54;83.25
56831;BME280;42713;42.676;23.352;2023-03-23T03:16:25;94802.03;;;6.51;82.61
56831;BME280;42713;42.676;23.352;2023-03-23T03:19:12;94803.03;;;6.50;82.02
56831;BME280;42713;42.676;23.352;2023-03-23T03:21:43;94806.81;;;6.48;83.18
56831;BME280;42713;42.676;23.352;2023-03-23T03:24:13;94807.63;;;6.48;82.43
56831;BME280;42713;42.676;23.352;2023-03-23T03:26:43;94801.44;;;6.49;82.18
56831;BME280;42713;42.676;23.352;2023-03-23T03:29:21;94799.03;;;6.48;82.76
56831;BME280;42713;42.676;23.352;2023-03-23T03:31:49;94812.84;;;6.48;82.76
56831;BME280;42713;42.676;23.352;2023-03-23T03:34:16;94807.63;;;6.48;83.30
56831;BME280;42713;42.676;23.352;2023-03-23T03:36:45;94813.63;;;6.49;83.00
56831;BME280;42713;42.676;23.352;2023-03-23T03:39:12;94809.22;;;6.49;83.24
56831;BME280;42713;42.676;23.352;2023-03-23T03:41:40;94807.47;;;6.43;83.37
56831;BME280;42713;42.676;23.352;2023-03-23T03:44:06;94814.84;;;6.46;82.98
56831;BME280;42713;42.676;23.352;2023-03-23T03:46:33;94803.50;;;6.41;82.08
56831;BME280;42713;42.676;23.352;2023-03-23T03:49:00;94810.06;;;6.43;82.54
56831;BME280;42713;42.676;23.352;2023-03-23T03:51:27;94809.06;;;6.44;82.02
56831;BME280;42713;42.676;23.352;2023-03-23T03:53:53;94802.72;;;6.40;82.78
56831;BME280;42713;42.676;23.352;2023-03-23T03:56:18;94800.91;;;6.41;82.54
56831;BME280;42713;42.676;23.352;2023-03-23T03:58:45;94802.50;;;6.42;82.94
56831;BME280;42713;42.676;23.352;2023-03-23T04:01:13;94801.13;;;6.39;83.26
56831;BME280;42713;42.676;23.352;2023-03-23T04:03:40;94806.31;;;6.39;82.64
56831;BME280;42713;42.676;23.352;2023-03-23T04:06:06;94802.34;;;6.36;82.15
56831;BME280;42713;42.676;23.352;2023-03-23T04:08:34;94803.91;;;6.37;81.77
56831;BME280;42713;42.676;23.352;2023-03-23T04:10:59;94797.94;;;6.37;82.60
56831;BME280;42713;42.676;23.352;2023-03-23T04:13:25;94795.91;;;6.39;82.18
56831;BME280;42713;42.676;23.352;2023-03-23T04:15:50;94790.91;;;6.37;82.30
56831;BME280;42713;42.676;23.352;2023-03-23T04:18:16;94790.13;;;6.37;81.50
56831;BME280;42713;42.676;23.352;2023-03-23T04:20:46;94796.75;;;6.33;82.07
56831;BME280;42713;42.676;23.352;2023-03-23T04:23:15;94800.38;;;6.32;81.61
56831;BME280;42713;42.676;23.352;2023-03-23T04:25:45;94797.56;;;6.33;81.34
56831;BME280;42713;42.676;23.352;2023-03-23T04:28:12;94804.41;;;6.28;81.37
56831;BME280;42713;42.676;23.352;2023-03-23T04:30:38;94798.84;;;6.24;81.49
56831;BME280;42713;42.676;23.352;2023-03-23T04:33:03;94802.66;;;6.21;82.22
56831;BME280;42713;42.676;23.352;2023-03-23T04:35:29;94810.25;;;6.23;82.24
56831;BME280;42713;42.676;23.352;2023-03-23T04:37:55;94806.06;;;6.22;82.26
56831;BME280;42713;42.676;23.352;2023-03-23T04:40:22;94807.28;;;6.19;82.42
56831;BME280;42713;42.676;23.352;2023-03-23T04:42:48;94811.31;;;6.15;82.41
56831;BME280;42713;42.676;23.352;2023-03-23T04:45:21;94805.69;;;6.18;82.54
56831;BME280;42713;42.676;23.352;2023-03-23T04:47:48;94809.88;;;6.19;82.41
56831;BME280;42713;42.676;23.352;2023-03-23T04:50:20;94810.16;;;6.11;82.56
56831;BME280;42713;42.676;23.352;2023-03-23T04:52:47;94816.13;;;6.12;82.81
56831;BME280;42713;42.676;23.352;2023-03-23T04:55:13;94815.53;;;6.10;83.44
56831;BME280;42713;42.676;23.352;2023-03-23T04:57:39;94814.16;;;6.07;82.81
56831;BME280;42713;42.676;23.352;2023-03-23T05:00:06;94816.53;;;6.08;83.11
56831;BME280;42713;42.676;23.352;2023-03-23T05:02:38;94824.16;;;6.10;83.57
56831;BME280;42713;42.676;23.352;2023-03-23T05:05:09;94833.56;;;6.11;83.64
56831;BME280;42713;42.676;23.352;2023-03-23T05:07:36;94826.13;;;6.15;83.82
56831;BME280;42713;42.676;23.352;2023-03-23T05:10:03;94822.06;;;6.19;83.56
56831;BME280;42713;42.676;23.352;2023-03-23T05:12:28;94832.06;;;6.22;83.85
56831;BME280;42713;42.676;23.352;2023-03-23T05:14:54;94830.84;;;6.25;83.33
56831;BME280;42713;42.676;23.352;2023-03-23T05:17:19;94833.03;;;6.28;83.41
56831;BME280;42713;42.676;23.352;2023-03-23T05:19:45;94837.59;;;6.32;83.38
56831;BME280;42713;42.676;23.352;2023-03-23T05:22:13;94831.97;;;6.35;83.67
56831;BME280;42713;42.676;23.352;2023-03-23T05:24:40;94843.16;;;6.36;82.75
56831;BME280;42713;42.676;23.352;2023-03-23T05:27:05;94844.38;;;6.33;83.11
56831;BME280;42713;42.676;23.352;2023-03-23T05:29:33;94840.56;;;6.36;83.77
56831;BME280;42713;42.676;23.352;2023-03-23T05:32:02;94846.94;;;6.40;84.12
56831;BME280;42713;42.676;23.352;2023-03-23T05:34:29;94848.72;;;6.39;84.24
56831;BME280;42713;42.676;23.352;2023-03-23T05:36:58;94847.13;;;6.38;84.54
56831;BME280;42713;42.676;23.352;2023-03-23T05:39:23;94852.34;;;6.38;84.10
56831;BME280;42713;42.676;23.352;2023-03-23T05:41:49;94856.91;;;6.43;84.57
56831;BME280;42713;42.676;23.352;2023-03-23T05:44:16;94856.06;;;6.49;84.69
56831;BME280;42713;42.676;23.352;2023-03-23T05:46:41;94860.91;;;6.46;84.89
56831;BME280;42713;42.676;23.352;2023-03-23T05:49:07;94862.19;;;6.36;84.72
56831;BME280;42713;42.676;23.352;2023-03-23T05:51:32;94853.16;;;6.39;85.02
56831;BME280;42713;42.676;23.352;2023-03-23T05:53:58;94868.28;;;6.49;85.96
56831;BME280;42713;42.676;23.352;2023-03-23T05:56:23;94862.66;;;6.52;85.13
56831;BME280;42713;42.676;23.352;2023-03-23T05:58:49;94867.25;;;6.50;84.93
56831;BME280;42713;42.676;23.352;2023-03-23T06:01:15;94864.63;;;6.57;83.70
56831;BME280;42713;42.676;23.352;2023-03-23T06:03:41;94870.56;;;6.64;83.39
56831;BME280;42713;42.676;23.352;2023-03-23T06:06:09;94877.72;;;6.68;83.78
56831;BME280;42713;42.676;23.352;2023-03-23T06:08:35;94875.28;;;6.74;84.36
56831;BME280;42713;42.676;23.352;2023-03-23T06:11:03;94869.28;;;6.73;84.35
56831;BME280;42713;42.676;23.352;2023-03-23T06:13:28;94870.44;;;6.77;84.56
56831;BME280;42713;42.676;23.352;2023-03-23T06:15:57;94874.19;;;6.81;84.68
56831;BME280;42713;42.676;23.352;2023-03-23T06:18:23;94877.84;;;6.80;83.93
56831;BME280;42713;42.676;23.352;2023-03-23T06:20:49;94872.19;;;6.83;84.13
56831;BME280;42713;42.676;23.352;2023-03-23T06:23:16;94875.16;;;6.87;83.63
56831;BME280;42713;42.676;23.352;2023-03-23T06:25:43;94878.69;;;6.93;84.79
56831;BME280;42713;42.676;23.352;2023-03-23T06:28:09;94879.66;;;6.98;84.58
56831;BME280;42713;42.676;23.352;2023-03-23T06:30:39;94874.81;;;7.02;84.36
56831;BME280;42713;42.676;23.352;2023-03-23T06:33:04;94876.56;;;7.08;84.24
56831;BME280;42713;42.676;23.352;2023-03-23T06:35:31;94875.34;;;7.11;84.09
56831;BME280;42713;42.676;23.352;2023-03-23T06:37:57;94872.94;;;7.09;83.68
56831;BME280;42713;42.676;23.352;2023-03-23T06:40:27;94880.31;;;7.12;83.70
56831;BME280;42713;42.676;23.352;2023-03-23T06:42:53;94877.66;;;7.19;84.07
56831;BME280;42713;42.676;23.352;2023-03-23T06:45:19;94879.19;;;7.27;83.56
56831;BME280;42713;42.676;23.352;2023-03-23T06:47:45;94883.94;;;7.30;83.68
56831;BME280;42713;42.676;23.352;2023-03-23T06:50:15;94877.50;;;7.32;83.31
56831;BME280;42713;42.676;23.352;2023-03-23T06:52:40;94897.84;;;7.42;83.37
56831;BME280;42713;42.676;23.352;2023-03-23T06:55:06;94887.00;;;7.45;83.23
56831;BME280;42713;42.676;23.352;2023-03-23T06:57:32;94888.28;;;7.55;82.73
56831;BME280;42713;42.676;23.352;2023-03-23T06:59:58;94889.44;;;7.59;82.87
56831;BME280;42713;42.676;23.352;2023-03-23T07:02:23;94891.75;;;7.67;82.28
56831;BME280;42713;42.676;23.352;2023-03-23T07:04:49;94893.72;;;7.72;82.58
56831;BME280;42713;42.676;23.352;2023-03-23T07:07:14;94889.44;;;7.77;82.01
56831;BME280;42713;42.676;23.352;2023-03-23T07:09:44;94898.03;;;7.78;81.22
56831;BME280;42713;42.676;23.352;2023-03-23T07:12:09;94892.97;;;7.83;80.60
56831;BME280;42713;42.676;23.352;2023-03-23T07:14:35;94893.31;;;7.87;80.55
56831;BME280;42713;42.676;23.352;2023-03-23T07:17:03;94890.84;;;7.92;80.02
56831;BME280;42713;42.676;23.352;2023-03-23T07:19:28;94898.81;;;7.97;80.15
56831;BME280;42713;42.676;23.352;2023-03-23T07:21:54;94894.53;;;8.03;80.67
56831;BME280;42713;42.676;23.352;2023-03-23T07:24:19;94896.47;;;8.07;79.45
56831;BME280;42713;42.676;23.352;2023-03-23T07:26:45;94888.41;;;8.09;78.71
56831;BME280;42713;42.676;23.352;2023-03-23T07:29:11;94896.94;;;8.16;79.28
56831;BME280;42713;42.676;23.352;2023-03-23T07:31:36;94896.25;;;8.21;80.19
56831;BME280;42713;42.676;23.352;2023-03-23T07:34:02;94892.53;;;8.29;80.10
56831;BME280;42713;42.676;23.352;2023-03-23T07:36:29;94896.09;;;8.34;80.22
56831;BME280;42713;42.676;23.352;2023-03-23T07:38:54;94895.41;;;8.39;79.37
56831;BME280;42713;42.676;23.352;2023-03-23T07:41:20;94898.13;;;8.44;79.43
56831;BME280;42713;42.676;23.352;2023-03-23T07:43:46;94897.50;;;8.49;79.84
56831;BME280;42713;42.676;23.352;2023-03-23T07:46:12;94899.22;;;8.55;78.93
56831;BME280;42713;42.676;23.352;2023-03-23T07:48:38;94895.94;;;8.60;79.06
56831;BME280;42713;42.676;23.352;2023-03-23T07:51:04;94900.25;;;8.66;78.89
56831;BME280;42713;42.676;23.352;2023-03-23T07:53:30;94904.56;;;8.72;78.50
56831;BME280;42713;42.676;23.352;2023-03-23T07:55:57;94903.44;;;8.80;78.78
56831;BME280;42713;42.676;23.352;2023-03-23T07:58:23;94907.78;;;8.86;78.87
56831;BME280;42713;42.676;23.352;2023-03-23T08:00:48;94904.25;;;8.92;78.44
56831;BME280;42713;42.676;23.352;2023-03-23T08:03:15;94905.25;;;8.91;77.22
56831;BME280;42713;42.676;23.352;2023-03-23T08:05:41;94902.78;;;8.96;77.56
56831;BME280;42713;42.676;23.352;2023-03-23T08:08:09;94911.88;;;9.06;78.95
56831;BME280;42713;42.676;23.352;2023-03-23T08:10:35;94908.56;;;9.10;78.38
56831;BME280;42713;42.676;23.352;2023-03-23T08:13:01;94913.47;;;9.18;78.19
56831;BME280;42713;42.676;23.352;2023-03-23T08:15:28;94914.13;;;9.26;78.59
56831;BME280;42713;42.676;23.352;2023-03-23T08:17:54;94913.88;;;9.27;76.75
56831;BME280;42713;42.676;23.352;2023-03-23T08:20:21;94914.13;;;9.26;76.87
56831;BME280;42713;42.676;23.352;2023-03-23T08:22:52;94911.41;;;9.32;78.26
56831;BME280;42713;42.676;23.352;2023-03-23T08:25:19;94914.69;;;9.40;76.52
56831;BME280;42713;42.676;23.352;2023-03-23T08:27:45;94907.50;;;9.47;77.69
56831;BME280;42713;42.676;23.352;2023-03-23T08:30:13;94905.78;;;9.53;75.75
56831;BME280;42713;42.676;23.352;2023-03-23T08:32:40;94900.56;;;9.53;74.93
56831;BME280;42713;42.676;23.352;2023-03-23T08:35:07;94902.25;;;9.59;74.51
56831;BME280;42713;42.676;23.352;2023-03-23T08:37:35;94896.56;;;9.62;73.94
56831;BME280;42713;42.676;23.352;2023-03-23T08:40:01;94899.97;;;9.62;74.91
56831;BME280;42713;42.676;23.352;2023-03-23T08:42:32;94901.19;;;9.72;73.79
56831;BME280;42713;42.676;23.352;2023-03-23T08:44:58;94904.47;;;9.79;74.19
56831;BME280;42713;42.676;23.352;2023-03-23T08:47:24;94901.47;;;9.87;72.96
56831;BME280;42713;42.676;23.352;2023-03-23T08:49:52;94906.44;;;10.01;74.59
56831;BME280;42713;42.676;23.352;2023-03-23T08:52:19;94898.31;;;10.14;69.70
56831;BME280;42713;42.676;23.352;2023-03-23T08:54:45;94895.47;;;10.16;65.86
56831;BME280;42713;42.676;23.352;2023-03-23T08:57:13;94894.66;;;10.15;65.39
56831;BME280;42713;42.676;23.352;2023-03-23T08:59:40;94889.78;;;10.19;63.47
56831;BME280;42713;42.676;23.352;2023-03-23T09:02:09;94897.47;;;10.25;65.71
56831;BME280;42713;42.676;23.352;2023-03-23T09:04:35;94894.81;;;10.37;71.90
56831;BME280;42713;42.676;23.352;2023-03-23T09:07:02;94900.56;;;10.51;68.03
56831;BME280;42713;42.676;23.352;2023-03-23T09:09:28;94901.75;;;10.61;64.62
56831;BME280;42713;42.676;23.352;2023-03-23T09:11:54;94897.16;;;10.68;65.63
56831;BME280;42713;42.676;23.352;2023-03-23T09:14:19;94889.22;;;10.63;66.16
56831;BME280;42713;42.676;23.352;2023-03-23T09:16:45;94890.00;;;10.63;63.25
56831;BME280;42713;42.676;23.352;2023-03-23T09:19:11;94893.19;;;10.65;64.37
56831;BME280;42713;42.676;23.352;2023-03-23T09:21:38;94899.34;;;10.76;66.54
56831;BME280;42713;42.676;23.352;2023-03-23T09:24:04;94891.66;;;10.86;64.61
56831;BME280;42713;42.676;23.352;2023-03-23T09:26:30;94883.31;;;10.89;65.16
56831;BME280;42713;42.676;23.352;2023-03-23T09:28:56;94885.28;;;10.99;65.60
56831;BME280;42713;42.676;23.352;2023-03-23T09:31:22;94890.63;;;11.04;65.45
56831;BME280;42713;42.676;23.352;2023-03-23T09:33:48;94888.56;;;11.07;64.63
56831;BME280;42713;42.676;23.352;2023-03-23T09:36:20;94872.56;;;11.08;63.88
56831;BME280;42713;42.676;23.352;2023-03-23T09:38:47;94883.94;;;11.14;64.56
56831;BME280;42713;42.676;23.352;2023-03-23T09:50:15;94879.31;;;11.43;60.41
56831;BME280;42713;42.676;23.352;2023-03-23T09:52:51;94874.16;;;11.48;62.48
56831;BME280;42713;42.676;23.352;2023-03-23T09:55:18;94875.22;;;11.52;62.21
56831;BME280;42713;42.676;23.352;2023-03-23T10:01:10;94871.16;;;11.62;61.29
56831;BME280;42713;42.676;23.352;2023-03-23T10:03:40;94870.91;;;11.63;59.81
56831;BME280;42713;42.676;23.352;2023-03-23T10:06:12;94870.66;;;11.65;61.28
56831;BME280;42713;42.676;23.352;2023-03-23T10:08:45;94868.13;;;11.70;60.84
56831;BME280;42713;42.676;23.352;2023-03-23T10:11:38;94864.25;;;11.78;60.58
56831;BME280;42713;42.676;23.352;2023-03-23T10:16:42;94859.81;;;11.78;56.81
56831;BME280;42713;42.676;23.352;2023-03-23T10:22:08;94850.38;;;11.82;58.36
56831;BME280;42713;42.676;23.352;2023-03-23T10:24:45;94854.03;;;11.81;58.55
56831;BME280;42713;42.676;23.352;2023-03-23T10:29:53;94853.22;;;11.98;58.61
56831;BME280;42713;42.676;23.352;2023-03-23T10:33:11;94856.44;;;12.05;57.00
56831;BME280;42713;42.676;23.352;2023-03-23T10:35:25;94852.06;;;12.16;56.68
56831;BME280;42713;42.676;23.352;2023-03-23T10:37:58;94853.72;;;12.27;56.04
56831;BME280;42713;42.676;23.352;2023-03-23T10:40:28;94849.81;;;12.30;55.22
56831;BME280;42713;42.676;23.352;2023-03-23T10:42:57;94851.47;;;12.36;55.98
56831;BME280;42713;42.676;23.352;2023-03-23T10:45:26;94847.59;;;12.44;53.99
56831;BME280;42713;42.676;23.352;2023-03-23T10:48:11;94843.66;;;12.47;55.95
56831;BME280;42713;42.676;23.352;2023-03-23T10:50:38;94847.13;;;12.52;55.74
56831;BME280;42713;42.676;23.352;2023-03-23T10:53:15;94839.00;;;12.59;55.45
56831;BME280;42713;42.676;23.352;2023-03-23T10:55:42;94841.22;;;12.72;56.19
56831;BME280;42713;42.676;23.352;2023-03-23T10:58:13;94839.97;;;12.80;56.85
56831;BME280;42713;42.676;23.352;2023-03-23T11:00:47;94836.09;;;12.93;55.53
56831;BME280;42713;42.676;23.352;2023-03-23T11:03:21;94841.69;;;13.07;55.97
56831;BME280;42713;42.676;23.352;2023-03-23T11:05:50;94842.78;;;13.16;54.37
56831;BME280;42713;42.676;23.352;2023-03-23T11:08:38;94841.16;;;13.05;52.32
56831;BME280;42713;42.676;23.352;2023-03-23T11:11:40;94834.09;;;13.11;51.66
56831;BME280;42713;42.676;23.352;2023-03-23T11:16:57;94829.66;;;13.16;49.97
56831;BME280;42713;42.676;23.352;2023-03-23T11:19:31;94824.97;;;13.29;52.09
56831;BME280;42713;42.676;23.352;2023-03-23T11:24:36;94824.91;;;13.66;53.44
56831;BME280;42713;42.676;23.352;2023-03-23T11:27:07;94818.88;;;13.92;52.95
56831;BME280;42713;42.676;23.352;2023-03-23T11:29:34;94805.75;;;13.97;49.51
56831;BME280;42713;42.676;23.352;2023-03-23T11:32:02;94801.78;;;14.10;51.06
56831;BME280;42713;42.676;23.352;2023-03-23T11:34:54;94804.19;;;14.27;51.37
56831;BME280;42713;42.676;23.352;2023-03-23T11:37:49;94798.66;;;14.39;50.29
56831;BME280;42713;42.676;23.352;2023-03-23T11:40:20;94797.88;;;14.48;50.66
56831;BME280;42713;42.676;23.352;2023-03-23T11:42:59;94791.78;;;14.58;49.23
56831;BME280;42713;42.676;23.352;2023-03-23T11:45:31;94793.38;;;14.59;48.20
56831;BME280;42713;42.676;23.352;2023-03-23T11:48:34;94791.00;;;14.58;47.77
56831;BME280;42713;42.676;23.352;2023-03-23T11:51:05;94786.50;;;14.58;46.61
56831;BME280;42713;42.676;23.352;2023-03-23T11:56:38;94778.09;;;14.46;46.04
56831;BME280;42713;42.676;23.352;2023-03-23T11:59:13;94774.94;;;14.49;46.83
56831;BME280;42713;42.676;23.352;2023-03-23T12:12:48;94768.00;;;15.00;47.70
56831;BME280;42713;42.676;23.352;2023-03-23T12:15:33;94776.38;;;15.17;48.08
56831;BME280;42713;42.676;23.352;2023-03-23T12:21:02;94765.72;;;15.43;47.22
56831;BME280;42713;42.676;23.352;2023-03-23T12:31:47;94769.69;;;15.96;44.88
56831;BME280;42713;42.676;23.352;2023-03-23T12:34:58;94769.09;;;16.04;44.90
56831;BME280;42713;42.676;23.352;2023-03-23T12:42:37;94757.56;;;16.59;44.17
56831;BME280;42713;42.676;23.352;2023-03-23T12:47:37;94758.88;;;16.86;43.38
56831;BME280;42713;42.676;23.352;2023-03-23T12:50:19;94751.81;;;17.05;41.96
56831;BME280;42713;42.676;23.352;2023-03-23T12:52:59;94747.78;;;17.32;41.54
56831;BME280;42713;42.676;23.352;2023-03-23T12:55:29;94739.56;;;17.53;40.74
56831;BME280;42713;42.676;23.352;2023-03-23T12:58:07;94727.53;;;17.80;41.27
56831;BME280;42713;42.676;23.352;2023-03-23T13:03:41;94723.59;;;18.15;39.65
56831;BME280;42713;42.676;23.352;2023-03-23T13:09:03;94720.16;;;18.62;38.77
56831;BME280;42713;42.676;23.352;2023-03-23T13:11:34;94726.28;;;18.90;39.10
56831;BME280;42713;42.676;23.352;2023-03-23T13:19:37;94729.50;;;19.57;36.97
56831;BME280;42713;42.676;23.352;2023-03-23T13:22:18;94714.38;;;19.80;35.96
56831;BME280;42713;42.676;23.352;2023-03-23T13:24:53;94720.19;;;20.05;36.40
56831;BME280;42713;42.676;23.352;2023-03-23T13:27:26;94715.69;;;20.37;34.70
56831;BME280;42713;42.676;23.352;2023-03-23T13:29:57;94712.56;;;20.66;35.24
56831;BME280;42713;42.676;23.352;2023-03-23T13:32:35;94713.66;;;20.97;34.96
56831;BME280;42713;42.676;23.352;2023-03-23T13:35:12;94709.19;;;21.33;34.67
56831;BME280;42713;42.676;23.352;2023-03-23T13:37:50;94701.41;;;21.71;33.86
56831;BME280;42713;42.676;23.352;2023-03-23T13:40:25;94700.50;;;21.94;32.47
56831;BME280;42713;42.676;23.352;2023-03-23T13:42:59;94703.59;;;22.04;32.31
56831;BME280;42713;42.676;23.352;2023-03-23T13:58:52;94691.34;;;23.67;29.52
56831;BME280;42713;42.676;23.352;2023-03-23T14:01:37;94690.09;;;23.86;29.06
56831;BME280;42713;42.676;23.352;2023-03-23T14:04:12;94686.63;;;24.06;29.16
56831;BME280;42713;42.676;23.352;2023-03-23T14:06:40;94685.69;;;24.23;28.40
56831;BME280;42713;42.676;23.352;2023-03-23T14:09:18;94684.84;;;24.44;27.97
56831;BME280;42713;42.676;23.352;2023-03-23T14:11:55;94675.38;;;24.59;27.90
56831;BME280;42713;42.676;23.352;2023-03-23T14:14:33;94674.41;;;24.76;27.12
56831;BME280;42713;42.676;23.352;2023-03-23T14:19:32;94662.16;;;25.12;27.19
56831;BME280;42713;42.676;23.352;2023-03-23T14:22:01;94668.03;;;25.18;28.01
56831;BME280;42713;42.676;23.352;2023-03-23T14:24:32;94669.19;;;25.17;28.48
56831;BME280;42713;42.676;23.352;2023-03-23T14:29:30;94670.94;;;25.13;31.68
56831;BME280;42713;42.676;23.352;2023-03-23T14:31:57;94661.34;;;25.24;32.38
56831;BME280;42713;42.676;23.352;2023-03-23T14:34:29;94662.00;;;25.33;32.24
56831;BME280;42713;42.676;23.352;2023-03-23T14:36:57;94665.22;;;25.39;31.79
56831;BME280;42713;42.676;23.352;2023-03-23T14:39:31;94666.75;;;25.53;31.75
56831;BME280;42713;42.676;23.352;2023-03-23T14:42:05;94670.16;;;25.50;29.89
56831;BME280;42713;42.676;23.352;2023-03-23T14:44:36;94667.31;;;25.58;30.91
56831;BME280;42713;42.676;23.352;2023-03-23T14:47:05;94663.13;;;25.73;32.33
56831;BME280;42713;42.676;23.352;2023-03-23T14:49:34;94656.41;;;25.79;30.52
56831;BME280;42713;42.676;23.352;2023-03-23T14:52:22;94664.50;;;25.67;30.63
56831;BME280;42713;42.676;23.352;2023-03-23T14:54:48;94665.19;;;25.64;28.43
56831;BME280;42713;42.676;23.352;2023-03-23T14:57:16;94655.78;;;25.70;28.92